Saint Nicholas, Pennsylvania
Current Conditions -  °F | °C
As of 3:55 PM on Tuesday 27 Jan 2015 (Local Time) from KHZL Reporting Station
Clear Clear  
Wind Chill:   Ceiling: Unl
Heat Index: 23°   Visibility: 10mi
Dew Point:   Wind: 17mph
Humidity: 50%   Direction: 300°WNW
Pressure: 29.72"   Gusts: 28mph
Location:  40.8128°N, 76.1382°W
Report Text: KHZL 272055Z AUTO 30015G24KT 10SM CLR M05/M14 A2972 RMK AO2
Loading
Personal Weather Stations






























Interactive Weather Map New forecast layout! Learn more

10-Day Weather Forecast

Advertisements
Track Severe Weather on mobile